createdAt,value
2023-05-15T00:00:51.304Z,8.95
2023-05-15T00:03:21.625Z,8.96
2023-05-15T00:05:49.866Z,8.96
2023-05-15T00:08:17.518Z,8.98
2023-05-15T00:10:53.969Z,8.99
2023-05-15T00:17:15.690Z,8.99
2023-05-15T00:19:43.247Z,8.97
2023-05-15T00:22:10.779Z,8.96
2023-05-15T00:24:38.298Z,8.91
2023-05-15T00:27:06.314Z,8.86
2023-05-15T00:29:33.965Z,8.82
2023-05-15T00:32:01.937Z,8.82
2023-05-15T00:34:29.462Z,8.78
2023-05-15T00:36:59.207Z,8.73
2023-05-15T00:39:27.091Z,8.68
2023-05-15T00:41:57.678Z,8.64
2023-05-15T00:44:26.868Z,8.59
2023-05-15T00:46:57.634Z,8.53
2023-05-15T00:49:27.749Z,8.48
2023-05-15T00:51:57.775Z,8.45
2023-05-15T00:54:25.421Z,8.41
2023-05-15T00:56:56.361Z,8.40
2023-05-15T00:59:26.473Z,8.38
2023-05-15T01:01:55.056Z,8.36
2023-05-15T01:04:22.963Z,8.36
2023-05-15T01:06:54.025Z,8.37
2023-05-15T01:09:25.101Z,8.41
2023-05-15T01:12:32.119Z,8.39
2023-05-15T01:15:00.031Z,8.37
2023-05-15T01:17:28.117Z,8.34
2023-05-15T01:19:58.286Z,8.35
2023-05-15T01:22:41.971Z,8.35
2023-05-15T01:25:54.133Z,8.38
2023-05-15T01:28:32.295Z,8.43
2023-05-15T01:31:10.656Z,8.49
2023-05-15T01:33:43.665Z,8.57
2023-05-15T01:36:21.810Z,8.63
2023-05-15T01:38:53.941Z,8.68
2023-05-15T01:41:22.310Z,8.72
2023-05-15T01:43:56.501Z,8.73
2023-05-15T01:46:28.491Z,8.70
2023-05-15T01:49:01.431Z,8.65
2023-05-15T01:51:31.475Z,8.61
2023-05-15T01:53:59.820Z,8.58
2023-05-15T01:56:27.567Z,8.56
2023-05-15T01:58:57.063Z,8.56
2023-05-15T02:01:26.245Z,8.56
2023-05-15T02:03:55.465Z,8.59
2023-05-15T02:06:24.492Z,8.61
2023-05-15T02:08:59.596Z,8.62
2023-05-15T02:11:27.202Z,8.60
2023-05-15T02:13:57.153Z,8.50
2023-05-15T02:16:24.921Z,8.44
2023-05-15T02:18:52.821Z,8.36
2023-05-15T02:21:21.018Z,8.29
2023-05-15T02:23:48.666Z,8.23
2023-05-15T02:26:51.181Z,8.12
2023-05-15T02:29:38.097Z,8.08
2023-05-15T02:32:29.394Z,8.03
2023-05-15T02:35:37.428Z,7.95
2023-05-15T02:38:09.332Z,7.90
2023-05-15T02:40:37.960Z,7.85
2023-05-15T02:43:08.875Z,7.81
2023-05-15T02:45:37.006Z,7.79
2023-05-15T02:48:05.613Z,7.78
2023-05-15T02:50:33.352Z,7.77
2023-05-15T02:53:05.234Z,7.71
2023-05-15T02:55:33.935Z,7.66
2023-05-15T02:58:59.292Z,7.62
2023-05-15T03:01:26.962Z,7.59
2023-05-15T03:03:54.521Z,7.56
2023-05-15T03:06:22.404Z,7.54
2023-05-15T03:08:49.887Z,7.51
2023-05-15T03:11:21.453Z,7.49
2023-05-15T03:13:49.107Z,7.46
2023-05-15T03:16:16.618Z,7.41
2023-05-15T03:18:44.217Z,7.34
2023-05-15T03:21:11.780Z,7.27
2023-05-15T03:24:45.511Z,7.22
2023-05-15T03:27:13.115Z,7.17
2023-05-15T03:30:06.685Z,7.15
2023-05-15T03:32:35.140Z,7.16
2023-05-15T03:35:02.789Z,7.18
2023-05-15T03:38:03.583Z,7.20
2023-05-15T03:40:41.708Z,7.18
2023-05-15T03:43:09.332Z,7.17
2023-05-15T03:45:36.913Z,7.17
2023-05-15T03:48:04.897Z,7.14
2023-05-15T03:50:33.119Z,7.12
2023-05-15T03:53:00.946Z,7.10
2023-05-15T03:55:28.544Z,7.08
2023-05-15T03:57:56.898Z,7.03
2023-05-15T04:00:24.824Z,7.02
2023-05-15T04:02:52.720Z,7.02
2023-05-15T04:05:23.168Z,7.00
2023-05-15T04:07:51.036Z,7.00
2023-05-15T04:10:19.341Z,7.01
2023-05-15T04:12:47.924Z,7.02
2023-05-15T04:15:21.662Z,7.02
2023-05-15T04:17:53.555Z,7.02
2023-05-15T04:20:23.488Z,7.00
2023-05-15T04:22:52.040Z,7.01
2023-05-15T04:26:28.389Z,7.01
2023-05-15T04:29:03.863Z,6.99
2023-05-15T04:31:32.393Z,6.99
2023-05-15T04:34:00.066Z,6.99
2023-05-15T04:36:27.664Z,7.01
2023-05-15T04:38:55.175Z,7.04
2023-05-15T04:41:23.279Z,7.05
2023-05-15T04:43:50.951Z,7.08
2023-05-15T04:46:18.644Z,7.13
2023-05-15T04:48:46.236Z,7.16
2023-05-15T04:51:13.765Z,7.18
2023-05-15T04:53:41.368Z,7.18
2023-05-15T04:56:09.057Z,7.17
2023-05-15T04:58:36.574Z,7.19
2023-05-15T05:01:04.752Z,7.24
2023-05-15T05:03:32.460Z,7.33
2023-05-15T05:06:00.468Z,7.42
2023-05-15T05:08:27.986Z,7.45
2023-05-15T05:10:57.542Z,7.50
2023-05-15T05:13:25.214Z,7.59
2023-05-15T05:15:52.768Z,7.66
2023-05-15T05:18:20.321Z,7.79
2023-05-15T05:20:47.876Z,8.20
2023-05-15T05:23:15.414Z,8.91
2023-05-15T05:25:42.985Z,9.60
2023-05-15T05:28:10.603Z,10.25
2023-05-15T05:30:38.235Z,10.80
2023-05-15T05:33:06.525Z,11.31
2023-05-15T05:35:34.194Z,11.78
2023-05-15T05:38:01.863Z,12.26
2023-05-15T05:40:29.588Z,12.71
2023-05-15T05:43:04.011Z,13.05
2023-05-15T05:45:31.988Z,13.27
2023-05-15T05:47:59.579Z,13.45
2023-05-15T05:50:27.210Z,13.64
2023-05-15T05:52:54.736Z,13.90
2023-05-15T05:55:22.400Z,14.18
2023-05-15T05:57:51.131Z,14.46
2023-05-15T06:00:19.608Z,14.68
2023-05-15T06:02:47.868Z,15.01
2023-05-15T06:05:15.545Z,15.30
2023-05-15T06:07:43.283Z,15.45
2023-05-15T06:10:10.914Z,15.67
2023-05-15T06:12:38.558Z,15.85
2023-05-15T06:15:07.112Z,16.03
2023-05-15T06:17:34.689Z,16.20
2023-05-15T06:20:02.869Z,16.46
2023-05-15T06:22:32.465Z,16.55
2023-05-15T06:25:00.209Z,16.58
2023-05-15T06:27:33.209Z,16.86
2023-05-15T06:30:30.044Z,17.19
2023-05-15T06:32:57.770Z,17.55
2023-05-15T06:35:25.586Z,17.77
2023-05-15T06:38:15.169Z,17.98
2023-05-15T06:41:26.105Z,18.20
2023-05-15T06:48:27.872Z,18.90
2023-05-15T06:50:56.095Z,18.97
2023-05-15T06:53:23.748Z,19.18
2023-05-15T06:59:26.348Z,19.22
2023-05-15T07:01:54.084Z,19.49
2023-05-15T07:12:45.243Z,20.56
2023-05-15T07:15:53.361Z,20.95
2023-05-15T07:22:56.621Z,21.68
2023-05-15T07:39:26.163Z,21.83
2023-05-15T07:42:07.355Z,21.88
2023-05-15T08:16:36.747Z,19.69
2023-05-15T08:19:07.404Z,19.79
2023-05-15T08:21:35.087Z,19.66
2023-05-15T08:24:03.043Z,19.28
2023-05-15T08:26:30.761Z,18.74
2023-05-15T08:28:58.294Z,18.58
2023-05-15T08:31:25.959Z,18.29
2023-05-15T08:33:53.581Z,18.10
2023-05-15T08:36:21.842Z,17.77
2023-05-15T08:38:49.418Z,17.37
2023-05-15T08:41:40.400Z,17.55
2023-05-15T08:44:11.167Z,18.79
2023-05-15T08:46:39.170Z,19.99
2023-05-15T08:49:22.058Z,20.01
2023-05-15T08:51:49.847Z,20.05
2023-05-15T08:54:18.544Z,19.68
2023-05-15T08:56:46.206Z,19.14
2023-05-15T08:59:13.872Z,18.83
2023-05-15T09:01:41.531Z,18.50
2023-05-15T09:04:09.566Z,19.04
2023-05-15T09:06:40.956Z,19.30
2023-05-15T09:09:09.954Z,19.49
2023-05-15T09:11:38.686Z,19.97
2023-05-15T09:14:08.014Z,21.14
2023-05-15T09:16:35.773Z,22.03
2023-05-15T09:19:03.477Z,22.71
2023-05-15T09:21:31.736Z,23.04
2023-05-15T09:24:31.798Z,23.94
2023-05-15T09:27:04.682Z,24.53
2023-05-15T09:29:33.598Z,25.21
2023-05-15T09:32:06.473Z,25.56
2023-05-15T09:34:35.977Z,26.22
2023-05-15T09:37:05.984Z,25.84
2023-05-15T09:39:43.914Z,24.24
2023-05-15T09:42:15.103Z,22.80
2023-05-15T09:44:44.676Z,21.88
2023-05-15T09:47:14.458Z,22.14
2023-05-15T09:49:44.721Z,21.83
2023-05-15T09:52:12.972Z,21.88
2023-05-15T09:54:40.761Z,22.66
2023-05-15T09:57:10.159Z,23.06
2023-05-15T09:59:48.565Z,23.29
2023-05-15T10:02:36.429Z,23.83
2023-05-15T10:05:04.664Z,23.32
2023-05-15T10:07:36.502Z,22.94
2023-05-15T10:10:05.444Z,22.20
2023-05-15T10:12:36.661Z,21.90
2023-05-15T10:15:04.880Z,21.89
2023-05-15T10:17:35.969Z,21.77
2023-05-15T10:20:07.203Z,21.38
2023-05-15T10:22:41.386Z,21.23
2023-05-15T10:25:23.915Z,21.15
2023-05-15T10:27:52.182Z,21.75
2023-05-15T10:30:20.555Z,22.53
2023-05-15T10:32:50.006Z,23.64
2023-05-15T10:35:18.257Z,24.57
2023-05-15T10:37:48.197Z,25.08
2023-05-15T10:40:17.492Z,25.50
2023-05-15T10:42:47.582Z,25.92
2023-05-15T10:45:15.486Z,26.11
2023-05-15T10:47:44.278Z,26.43
2023-05-15T10:54:40.623Z,27.10
2023-05-15T10:57:08.564Z,27.49
2023-05-15T10:59:52.551Z,27.60
2023-05-15T11:07:12.136Z,27.40
2023-05-15T11:09:40.458Z,26.91
2023-05-15T11:12:09.604Z,26.72
2023-05-15T11:14:42.859Z,27.08
2023-05-15T11:17:17.703Z,27.17
2023-05-15T11:19:51.562Z,26.03
2023-05-15T11:22:21.662Z,24.88
2023-05-15T11:24:54.732Z,23.78
2023-05-15T11:27:38.060Z,22.86
2023-05-15T11:30:15.313Z,23.30
2023-05-15T11:32:44.137Z,24.26
2023-05-15T11:35:18.487Z,25.23
2023-05-15T11:37:48.228Z,25.94
2023-05-15T11:40:56.108Z,26.33
2023-05-15T11:43:28.770Z,26.56
2023-05-15T11:46:09.699Z,26.94
2023-05-15T11:48:45.256Z,27.56
2023-05-15T11:51:25.101Z,27.37
2023-05-15T11:53:55.055Z,26.44
2023-05-15T11:56:24.818Z,26.30
2023-05-15T11:58:57.032Z,26.71
2023-05-15T12:01:25.066Z,27.24
2023-05-15T12:03:55.222Z,27.41
2023-05-15T12:06:24.206Z,27.31
2023-05-15T12:08:53.158Z,27.30
2023-05-15T12:11:24.822Z,27.20
2023-05-15T12:13:54.277Z,27.00
2023-05-15T12:16:26.784Z,26.41
2023-05-15T12:18:57.220Z,25.78
2023-05-15T12:21:27.306Z,26.15
2023-05-15T12:24:07.856Z,25.92
2023-05-15T12:26:36.260Z,25.14
2023-05-15T12:29:05.098Z,24.67
2023-05-15T12:31:35.817Z,24.76
2023-05-15T12:34:03.606Z,24.92
2023-05-15T12:36:31.332Z,25.46
2023-05-15T12:39:04.816Z,25.79
2023-05-15T12:41:32.801Z,25.87
2023-05-15T12:44:00.455Z,25.75
2023-05-15T12:46:32.504Z,25.75
2023-05-15T12:49:01.426Z,25.98
2023-05-15T12:51:30.194Z,26.20
2023-05-15T12:53:58.422Z,26.40
2023-05-15T12:56:26.506Z,26.47
2023-05-15T12:58:56.210Z,26.53
2023-05-15T13:01:23.894Z,26.66
2023-05-15T13:03:52.401Z,26.82
2023-05-15T13:06:23.596Z,26.85
2023-05-15T13:08:51.568Z,26.78
2023-05-15T13:11:19.446Z,26.64
2023-05-15T13:13:49.001Z,26.65
2023-05-15T13:16:25.784Z,26.45
2023-05-15T13:18:53.582Z,26.21
2023-05-15T13:21:21.449Z,26.17
2023-05-15T13:23:49.230Z,26.34
2023-05-15T13:26:17.176Z,26.40
2023-05-15T13:28:44.805Z,26.28
2023-05-15T13:31:12.514Z,26.09
2023-05-15T13:33:40.262Z,26.04
2023-05-15T13:36:07.940Z,25.63
2023-05-15T13:38:35.598Z,25.01
2023-05-15T13:41:04.530Z,24.49
2023-05-15T13:43:32.087Z,23.84
2023-05-15T13:45:59.599Z,23.01
2023-05-15T13:48:27.348Z,22.30
2023-05-15T13:50:54.869Z,21.70
2023-05-15T13:53:22.453Z,21.39
2023-05-15T13:55:50.116Z,21.31
2023-05-15T13:58:17.697Z,21.66
2023-05-15T14:00:45.389Z,21.73
2023-05-15T14:03:14.969Z,21.65
2023-05-15T14:05:43.155Z,21.36
2023-05-15T14:08:11.095Z,21.24
2023-05-15T14:10:38.858Z,21.32
2023-05-15T14:13:06.438Z,21.35
2023-05-15T14:15:34.032Z,21.28
2023-05-15T14:18:01.630Z,21.13
2023-05-15T14:20:29.346Z,21.08
2023-05-15T14:22:56.874Z,20.94
2023-05-15T14:25:24.594Z,20.76
2023-05-15T14:27:52.519Z,20.43
2023-05-15T14:30:22.273Z,20.22
2023-05-15T14:32:49.965Z,20.03
2023-05-15T14:35:17.567Z,19.77
2023-05-15T14:37:45.282Z,19.58
2023-05-15T14:40:13.511Z,19.41
2023-05-15T14:42:41.115Z,19.07
2023-05-15T14:45:09.286Z,18.75
2023-05-15T14:47:36.939Z,18.56
2023-05-15T14:50:04.992Z,18.39
2023-05-15T14:52:32.556Z,18.24
2023-05-15T14:55:09.211Z,18.11
2023-05-15T14:57:38.504Z,18.09
2023-05-15T15:00:07.217Z,18.15
2023-05-15T15:02:35.217Z,18.24
2023-05-15T15:05:03.274Z,18.33
2023-05-15T15:07:30.938Z,18.47
2023-05-15T15:09:58.436Z,18.50
2023-05-15T15:12:26.907Z,18.48
2023-05-15T15:14:54.496Z,18.53
2023-05-15T15:17:22.063Z,18.56
2023-05-15T15:19:49.552Z,18.56
2023-05-15T15:22:17.161Z,18.50
2023-05-15T15:24:44.729Z,18.53
2023-05-15T15:27:12.297Z,18.43
2023-05-15T15:29:39.847Z,18.28
2023-05-15T15:32:07.728Z,18.23
2023-05-15T15:34:35.400Z,18.22
2023-05-15T15:37:03.594Z,18.12
2023-05-15T15:39:33.138Z,18.08
2023-05-15T15:42:00.762Z,18.03
2023-05-15T15:44:28.440Z,17.99
2023-05-15T15:46:56.148Z,18.03
2023-05-15T15:49:23.705Z,17.97
2023-05-15T15:51:51.430Z,17.91
2023-05-15T15:54:18.984Z,17.98
2023-05-15T15:56:47.992Z,17.99
2023-05-15T15:59:15.690Z,17.99
2023-05-15T16:01:43.611Z,17.88
2023-05-15T16:04:11.424Z,17.81
2023-05-15T16:06:39.217Z,17.80
2023-05-15T16:09:06.846Z,17.85
2023-05-15T16:11:34.496Z,17.82
2023-05-15T16:14:02.059Z,17.74
2023-05-15T16:16:29.671Z,17.69
2023-05-15T16:18:57.257Z,17.65
2023-05-15T16:21:24.911Z,17.51
2023-05-15T16:23:52.410Z,17.35
2023-05-15T16:26:20.606Z,17.23
2023-05-15T16:28:48.224Z,17.25
2023-05-15T16:31:16.323Z,17.27
2023-05-15T16:33:43.974Z,17.25
2023-05-15T16:36:11.876Z,17.27
2023-05-15T16:38:39.630Z,17.26
2023-05-15T16:41:07.384Z,17.20
2023-05-15T16:43:41.410Z,17.10
2023-05-15T16:46:09.129Z,17.00
2023-05-15T16:48:36.887Z,16.98
2023-05-15T16:51:04.799Z,16.91
2023-05-15T16:53:32.568Z,16.88
2023-05-15T16:56:00.469Z,16.83
2023-05-15T16:58:28.343Z,16.78
2023-05-15T17:00:55.944Z,16.75
2023-05-15T17:03:23.683Z,16.73
2023-05-15T17:05:51.454Z,16.68
2023-05-15T17:08:19.080Z,16.59
2023-05-15T17:10:46.676Z,16.56
2023-05-15T17:13:14.660Z,16.54
2023-05-15T17:15:42.392Z,16.54
2023-05-15T17:18:10.072Z,16.52
2023-05-15T17:20:37.700Z,16.48
2023-05-15T17:23:05.366Z,16.43
2023-05-15T17:25:33.034Z,16.35
2023-05-15T17:28:00.611Z,16.25
2023-05-15T17:30:31.284Z,16.19
2023-05-15T17:33:00.617Z,16.14
2023-05-15T17:35:29.950Z,16.12
2023-05-15T17:37:59.675Z,16.10
2023-05-15T17:40:27.292Z,16.05
2023-05-15T17:42:54.861Z,16.05
2023-05-15T17:45:22.655Z,16.01
2023-05-15T17:47:50.284Z,15.95
2023-05-15T17:50:17.969Z,15.93
2023-05-15T17:52:45.629Z,15.88
2023-05-15T17:55:13.370Z,15.81
2023-05-15T17:57:40.984Z,15.71
2023-05-15T18:00:09.453Z,15.62
2023-05-15T18:02:39.853Z,15.55
2023-05-15T18:05:07.747Z,15.53
2023-05-15T18:07:35.267Z,15.47
2023-05-15T18:10:02.870Z,15.39
2023-05-15T18:12:30.371Z,15.32
2023-05-15T18:14:58.178Z,15.28
2023-05-15T18:26:13.563Z,15.04
2023-05-15T18:28:41.361Z,14.98
2023-05-15T18:31:09.019Z,14.92
2023-05-15T18:33:36.754Z,14.85
2023-05-15T18:36:07.280Z,14.81
2023-05-15T18:38:35.094Z,14.75
2023-05-15T18:41:02.753Z,14.72
2023-05-15T18:43:41.927Z,14.68
2023-05-15T18:46:10.042Z,14.60
2023-05-15T18:48:37.642Z,14.56
2023-05-15T18:51:05.323Z,14.46
2023-05-15T18:53:32.914Z,14.41
2023-05-15T18:56:00.703Z,14.36
2023-05-15T18:58:28.227Z,14.31
2023-05-15T19:00:56.662Z,14.28
2023-05-15T19:03:25.955Z,14.22
2023-05-15T19:05:53.660Z,14.17
2023-05-15T19:08:21.188Z,14.15
2023-05-15T19:10:49.000Z,14.12
2023-05-15T19:13:16.535Z,14.09
2023-05-15T19:42:55.597Z,13.19
2023-05-15T19:45:26.202Z,13.17
2023-05-15T19:47:53.781Z,13.16
2023-05-15T20:01:40.735Z,12.86
2023-05-15T20:04:08.512Z,12.80
2023-05-15T20:06:39.265Z,12.73
2023-05-15T20:09:06.943Z,12.70
2023-05-15T20:11:34.475Z,12.68
2023-05-15T20:25:51.343Z,12.28
2023-05-15T20:28:19.064Z,12.24
2023-05-15T20:30:49.637Z,12.18
2023-05-15T20:33:17.306Z,12.12
2023-05-15T20:35:48.643Z,12.10
2023-05-15T20:38:29.364Z,12.05
2023-05-15T20:45:32.666Z,11.92
2023-05-15T20:48:00.515Z,11.87
2023-05-15T20:50:28.445Z,11.83
2023-05-15T20:52:56.138Z,11.79
2023-05-15T20:55:23.695Z,11.74
2023-05-15T20:57:51.358Z,11.68
2023-05-15T21:00:19.556Z,11.69
2023-05-15T21:02:54.569Z,11.66
2023-05-15T21:05:26.109Z,11.64
2023-05-15T21:07:53.688Z,11.59
2023-05-15T21:10:21.308Z,11.57
2023-05-15T21:12:48.923Z,11.52
2023-05-15T21:15:16.584Z,11.48
2023-05-15T21:17:44.212Z,11.44
2023-05-15T21:20:12.121Z,11.41
2023-05-15T21:22:39.776Z,11.37
2023-05-15T21:25:07.783Z,11.34
2023-05-15T21:27:35.482Z,11.33
2023-05-15T21:30:03.143Z,11.30
2023-05-15T21:32:31.349Z,11.29
2023-05-15T21:35:01.899Z,11.25
2023-05-15T21:37:29.435Z,11.21
2023-05-15T21:39:56.926Z,11.19
2023-05-15T21:42:24.550Z,11.18
2023-05-15T21:44:52.051Z,11.15
2023-05-15T21:47:19.587Z,11.11
2023-05-15T21:49:47.278Z,11.07
2023-05-15T21:52:14.804Z,11.06
2023-05-15T21:54:43.948Z,11.03
2023-05-15T21:57:11.540Z,11.00
2023-05-15T21:59:39.050Z,10.99
2023-05-15T22:02:06.943Z,10.96
2023-05-15T22:04:34.784Z,10.93
2023-05-15T22:07:02.355Z,10.91
2023-05-15T22:09:29.978Z,10.90
2023-05-15T22:11:57.566Z,10.89
2023-05-15T22:14:25.112Z,10.87
2023-05-15T22:16:52.898Z,10.85
2023-05-15T22:19:32.178Z,10.83
2023-05-15T22:22:04.546Z,10.81
2023-05-15T22:24:32.584Z,10.83
2023-05-15T22:27:00.243Z,10.80
2023-05-15T22:29:27.804Z,10.76
2023-05-15T22:31:56.389Z,10.75
2023-05-15T22:34:25.455Z,10.74
2023-05-15T22:39:21.609Z,10.75
2023-05-15T22:41:49.399Z,10.74
2023-05-15T22:44:16.990Z,10.76
2023-05-15T22:46:44.758Z,10.77
2023-05-15T22:49:23.467Z,10.80
2023-05-15T22:51:55.687Z,10.81
2023-05-15T22:54:23.765Z,10.79
2023-05-15T22:56:52.647Z,10.79
2023-05-15T22:59:20.859Z,10.76
2023-05-15T23:01:49.359Z,10.78
2023-05-15T23:04:17.559Z,10.77
2023-05-15T23:06:45.605Z,10.77
2023-05-15T23:09:13.234Z,10.77
2023-05-15T23:11:40.793Z,10.79
2023-05-15T23:14:08.562Z,10.78
2023-05-15T23:16:36.275Z,10.76
2023-05-15T23:19:04.353Z,10.75
2023-05-15T23:21:31.951Z,10.74
2023-05-15T23:23:59.532Z,10.76
2023-05-15T23:26:27.402Z,10.75
2023-05-15T23:28:55.095Z,10.76
2023-05-15T23:31:22.917Z,10.77
2023-05-15T23:33:50.842Z,10.79
2023-05-15T23:36:18.451Z,10.78
2023-05-15T23:38:46.124Z,10.77
2023-05-15T23:41:13.939Z,10.78
2023-05-15T23:43:41.490Z,10.76
2023-05-15T23:46:09.145Z,10.77
2023-05-15T23:48:36.826Z,10.75
2023-05-15T23:51:04.531Z,10.75
2023-05-15T23:53:32.252Z,10.77
2023-05-15T23:55:59.789Z,10.79
2023-05-15T23:58:27.356Z,10.86
